createdAt,value
2017-11-18T00:00:38.443Z,92.08
2017-11-18T00:03:06.204Z,92.46
2017-11-18T00:05:33.818Z,92.54
2017-11-18T00:08:01.411Z,92.08
2017-11-18T00:10:28.974Z,92.68
2017-11-18T00:12:56.572Z,92.73
2017-11-18T00:15:24.232Z,92.64
2017-11-18T00:17:53.532Z,92.56
2017-11-18T00:20:21.129Z,92.81
2017-11-18T00:22:48.690Z,93.32
2017-11-18T00:25:16.253Z,93.69
2017-11-18T00:27:43.834Z,93.75
2017-11-18T00:30:11.388Z,93.77
2017-11-18T00:32:38.953Z,93.72
2017-11-18T00:35:06.594Z,93.46
2017-11-18T00:37:34.217Z,93.10
2017-11-18T00:40:01.818Z,93.22
2017-11-18T00:42:29.367Z,93.46
2017-11-18T00:44:56.944Z,93.64
2017-11-18T00:47:24.573Z,93.97
2017-11-18T00:49:52.125Z,94.16
2017-11-18T00:52:19.698Z,94.29
2017-11-18T00:54:47.290Z,94.58
2017-11-18T00:57:15.130Z,94.53
2017-11-18T00:59:42.734Z,94.49
2017-11-18T01:02:10.311Z,94.33
2017-11-18T01:04:37.866Z,94.21
2017-11-18T01:07:05.644Z,93.95
2017-11-18T01:09:33.209Z,93.66
2017-11-18T01:12:00.771Z,93.55
2017-11-18T01:14:28.391Z,93.70
2017-11-18T01:16:55.955Z,94.04
2017-11-18T01:19:23.519Z,94.09
2017-11-18T01:21:51.116Z,94.13
2017-11-18T01:24:18.665Z,94.11
2017-11-18T01:26:46.231Z,94.14
2017-11-18T01:29:13.877Z,94.45
2017-11-18T01:31:41.443Z,94.33
2017-11-18T01:34:09.142Z,94.29
2017-11-18T01:36:36.727Z,94.28
2017-11-18T01:39:04.339Z,93.96
2017-11-18T01:41:32.393Z,93.86
2017-11-18T01:43:59.967Z,93.99
2017-11-18T01:46:27.549Z,94.18
2017-11-18T01:48:55.136Z,94.31
2017-11-18T01:51:22.724Z,94.10
2017-11-18T01:53:50.290Z,93.80
2017-11-18T01:56:17.869Z,93.59
2017-11-18T01:58:45.471Z,93.28
2017-11-18T02:01:13.555Z,93.43
2017-11-18T02:03:41.124Z,93.37
2017-11-18T02:06:08.991Z,93.45
2017-11-18T02:08:36.567Z,93.37
2017-11-18T02:11:04.143Z,93.09
2017-11-18T02:13:31.740Z,93.37
2017-11-18T02:15:59.607Z,93.38
2017-11-18T02:18:27.187Z,93.54
2017-11-18T02:20:54.795Z,93.20
2017-11-18T02:23:22.383Z,92.93
2017-11-18T02:25:49.991Z,92.82
2017-11-18T02:28:17.598Z,92.50
2017-11-18T02:30:45.167Z,92.25
2017-11-18T02:33:12.749Z,92.63
2017-11-18T02:35:40.343Z,93.03
2017-11-18T02:38:07.958Z,93.15
2017-11-18T02:40:35.588Z,93.38
2017-11-18T02:43:03.175Z,93.57
2017-11-18T02:45:30.757Z,93.94
2017-11-18T02:47:58.424Z,93.92
2017-11-18T02:50:26.403Z,94.08
2017-11-18T02:52:54.358Z,94.06
2017-11-18T02:55:22.466Z,93.85
2017-11-18T02:57:50.060Z,94.09
2017-11-18T03:00:17.711Z,94.15
2017-11-18T03:02:45.325Z,94.29
2017-11-18T03:05:13.000Z,93.99
2017-11-18T03:07:40.971Z,93.70
2017-11-18T03:10:08.937Z,93.85
2017-11-18T03:12:36.508Z,93.81
2017-11-18T03:15:04.139Z,93.63
2017-11-18T03:17:31.774Z,93.71
2017-11-18T03:19:59.346Z,93.66
2017-11-18T03:22:28.337Z,93.78
2017-11-18T03:24:56.338Z,93.72
2017-11-18T03:27:23.945Z,93.63
2017-11-18T03:29:51.979Z,93.56
2017-11-18T03:32:20.209Z,93.41
2017-11-18T03:34:47.792Z,93.07
2017-11-18T03:37:15.358Z,92.71
2017-11-18T03:39:42.983Z,92.87
2017-11-18T03:42:10.620Z,93.45
2017-11-18T03:44:38.221Z,93.58
2017-11-18T03:47:05.877Z,93.53
2017-11-18T03:49:33.476Z,93.41
2017-11-18T03:52:03.439Z,93.32
2017-11-18T03:54:31.035Z,93.27
2017-11-18T03:56:58.631Z,93.21
2017-11-18T03:59:26.229Z,93.14
2017-11-18T04:01:53.831Z,93.05
2017-11-18T04:04:22.143Z,93.16
2017-11-18T04:06:49.697Z,93.02
2017-11-18T04:09:17.290Z,93.17
2017-11-18T04:11:44.849Z,93.19
2017-11-18T04:14:12.454Z,93.11
2017-11-18T04:16:40.034Z,93.07
2017-11-18T04:19:07.684Z,93.06
2017-11-18T04:21:35.273Z,93.04
2017-11-18T04:24:02.876Z,92.88
2017-11-18T04:26:30.422Z,92.56
2017-11-18T04:28:57.992Z,92.38
2017-11-18T04:31:26.402Z,92.32
2017-11-18T04:33:53.953Z,92.57
2017-11-18T04:36:21.538Z,92.22
2017-11-18T04:38:49.124Z,92.30
2017-11-18T04:41:16.676Z,92.15
2017-11-18T04:43:44.225Z,92.48
2017-11-18T04:46:11.814Z,92.65
2017-11-18T04:48:39.397Z,92.56
2017-11-18T04:51:06.960Z,92.51
2017-11-18T04:53:34.532Z,92.31
2017-11-18T04:56:02.123Z,92.05
2017-11-18T04:58:29.697Z,92.00
2017-11-18T05:00:57.278Z,92.12
2017-11-18T05:03:24.860Z,92.21
2017-11-18T05:05:52.423Z,92.45
2017-11-18T05:08:20.555Z,92.56
2017-11-18T05:10:48.211Z,92.75
2017-11-18T05:13:15.819Z,92.98
2017-11-18T05:15:43.403Z,93.25
2017-11-18T05:18:10.991Z,93.42
2017-11-18T05:20:38.565Z,93.50
2017-11-18T05:23:06.112Z,93.58
2017-11-18T05:25:33.744Z,93.63
2017-11-18T05:28:01.330Z,93.59
2017-11-18T05:30:29.859Z,93.48
2017-11-18T05:32:57.414Z,93.37
2017-11-18T05:35:25.105Z,93.68
2017-11-18T05:37:52.768Z,93.70
2017-11-18T05:40:20.337Z,93.72
2017-11-18T05:42:47.955Z,93.74
2017-11-18T05:45:15.511Z,93.84
2017-11-18T05:50:14.930Z,94.14
2017-11-18T05:52:42.485Z,94.27
2017-11-18T05:55:10.061Z,94.25
2017-11-18T05:57:37.666Z,94.10
2017-11-18T06:00:05.503Z,93.91
2017-11-18T06:02:33.128Z,93.80
2017-11-18T06:05:00.724Z,93.66
2017-11-18T06:07:29.068Z,93.81
2017-11-18T06:09:56.635Z,93.98
2017-11-18T06:12:24.238Z,94.06
2017-11-18T06:14:51.819Z,93.98
2017-11-18T06:17:19.429Z,94.18
2017-11-18T06:19:47.047Z,94.23
2017-11-18T06:22:14.606Z,94.28
2017-11-18T06:24:42.216Z,94.28
2017-11-18T06:27:10.119Z,94.39
2017-11-18T06:29:38.766Z,94.55
2017-11-18T06:32:06.312Z,94.64
2017-11-18T06:34:33.889Z,94.53
2017-11-18T06:37:01.769Z,94.34
2017-11-18T06:39:29.339Z,94.08
2017-11-18T06:41:56.915Z,93.70
2017-11-18T06:44:24.499Z,93.52
2017-11-18T06:46:52.054Z,93.63
2017-11-18T06:49:19.608Z,93.89
2017-11-18T06:51:47.200Z,94.05
2017-11-18T06:54:14.768Z,94.26
2017-11-18T06:56:42.327Z,94.34
2017-11-18T06:59:09.959Z,94.47
2017-11-18T07:01:37.594Z,94.15
2017-11-18T07:04:05.203Z,94.18
2017-11-18T07:06:32.824Z,94.17
2017-11-18T07:09:00.388Z,94.19
2017-11-18T07:11:27.978Z,93.94
2017-11-18T07:13:56.660Z,94.01
2017-11-18T07:16:24.219Z,94.01
2017-11-18T07:18:51.807Z,93.70
2017-11-18T07:21:19.437Z,93.51
2017-11-18T07:23:47.094Z,93.48
2017-11-18T07:26:14.832Z,93.35
2017-11-18T07:28:42.606Z,93.39
2017-11-18T07:31:11.049Z,93.47
2017-11-18T07:33:38.672Z,92.96
2017-11-18T07:36:06.308Z,92.82
2017-11-18T07:38:34.633Z,92.87
2017-11-18T07:41:03.889Z,92.55
2017-11-18T07:43:31.524Z,92.90
2017-11-18T07:45:59.346Z,93.15
2017-11-18T07:48:27.044Z,93.19
2017-11-18T07:50:54.593Z,93.41
2017-11-18T07:53:22.271Z,93.35
2017-11-18T07:55:51.347Z,93.36
2017-11-18T07:58:20.908Z,93.15
2017-11-18T08:00:48.532Z,92.62
2017-11-18T08:03:16.360Z,92.16
2017-11-18T08:05:43.912Z,91.54
2017-11-18T08:08:11.493Z,90.91
2017-11-18T08:10:39.080Z,90.12
2017-11-18T08:13:06.661Z,87.98
2017-11-18T08:15:34.263Z,87.59
2017-11-18T08:18:01.855Z,86.71
2017-11-18T08:20:30.471Z,85.58
2017-11-18T08:22:58.027Z,86.08
2017-11-18T08:25:25.692Z,85.90
2017-11-18T08:27:53.264Z,86.15
2017-11-18T08:30:20.809Z,86.41
2017-11-18T08:32:48.365Z,86.87
2017-11-18T08:35:15.998Z,87.29
2017-11-18T08:37:43.564Z,87.44
2017-11-18T08:40:11.155Z,87.81
2017-11-18T08:42:38.755Z,88.09
2017-11-18T08:45:06.652Z,88.41
2017-11-18T08:47:34.818Z,87.85
2017-11-18T08:50:02.390Z,88.82
2017-11-18T08:52:30.274Z,88.83
2017-11-18T08:54:57.885Z,88.50
2017-11-18T08:57:25.468Z,88.72
2017-11-18T08:59:53.849Z,88.80
2017-11-18T09:02:21.423Z,88.90
2017-11-18T09:04:48.985Z,88.82
2017-11-18T09:07:16.585Z,88.49
2017-11-18T09:09:44.193Z,88.25
2017-11-18T09:12:11.781Z,88.57
2017-11-18T09:14:39.331Z,87.91
2017-11-18T09:17:07.009Z,87.82
2017-11-18T09:19:34.603Z,87.84
2017-11-18T09:22:02.164Z,87.52
2017-11-18T09:24:29.734Z,87.43
2017-11-18T09:26:57.344Z,87.31
2017-11-18T09:29:24.900Z,87.09
2017-11-18T09:31:52.492Z,86.83
2017-11-18T09:34:20.100Z,86.60
2017-11-18T09:36:47.713Z,86.40
2017-11-18T09:39:15.274Z,85.98
2017-11-18T09:41:42.861Z,85.55
2017-11-18T09:44:10.452Z,85.82
2017-11-18T09:46:38.028Z,86.25
2017-11-18T09:49:05.686Z,86.68
2017-11-18T09:51:33.252Z,86.64
2017-11-18T09:54:00.819Z,86.19
2017-11-18T09:56:28.440Z,86.33
2017-11-18T09:58:55.989Z,85.66
2017-11-18T10:01:23.700Z,85.83
2017-11-18T10:03:51.325Z,85.80
2017-11-18T10:06:19.037Z,85.13
2017-11-18T10:08:46.625Z,85.37
2017-11-18T10:11:14.283Z,84.91
2017-11-18T10:13:41.860Z,85.69
2017-11-18T10:16:09.449Z,84.48
2017-11-18T10:18:37.028Z,84.72
2017-11-18T10:21:04.740Z,84.25
2017-11-18T10:23:32.364Z,84.23
2017-11-18T10:25:59.946Z,84.43
2017-11-18T10:28:27.557Z,84.09
2017-11-18T10:30:55.115Z,84.27
2017-11-18T10:33:23.076Z,85.21
2017-11-18T10:35:50.656Z,85.09
2017-11-18T10:38:18.228Z,85.24
2017-11-18T10:40:46.280Z,85.75
2017-11-18T10:43:13.861Z,86.61
2017-11-18T10:45:41.469Z,86.76
2017-11-18T10:48:09.126Z,86.65
2017-11-18T10:50:36.698Z,86.95
2017-11-18T10:53:04.304Z,87.90
2017-11-18T10:55:32.432Z,87.55
2017-11-18T10:57:59.984Z,87.78
2017-11-18T11:00:27.596Z,87.55
2017-11-18T11:02:55.222Z,87.45
2017-11-18T11:05:22.842Z,87.62
2017-11-18T11:07:53.090Z,87.14
2017-11-18T11:10:20.802Z,86.92
2017-11-18T11:12:48.362Z,86.15
2017-11-18T11:15:16.008Z,85.97
2017-11-18T11:17:43.586Z,85.66
2017-11-18T11:20:11.220Z,86.99
2017-11-18T11:22:38.775Z,86.32
2017-11-18T11:25:06.401Z,86.77
2017-11-18T11:27:33.980Z,87.30
2017-11-18T11:30:01.602Z,87.80
2017-11-18T11:32:29.219Z,87.99
2017-11-18T11:34:56.784Z,88.15
2017-11-18T11:37:24.407Z,88.47
2017-11-18T11:39:52.005Z,88.98
2017-11-18T11:42:19.585Z,88.95
2017-11-18T11:44:47.427Z,88.96
2017-11-18T11:47:15.207Z,89.19
2017-11-18T11:49:43.427Z,88.80
2017-11-18T11:52:11.007Z,89.76
2017-11-18T11:54:39.926Z,89.75
2017-11-18T11:57:07.621Z,89.75
2017-11-18T11:59:35.196Z,90.41
2017-11-18T12:02:02.770Z,90.11
2017-11-18T12:04:30.354Z,90.07
2017-11-18T12:06:57.911Z,90.18
2017-11-18T12:09:25.605Z,90.66
2017-11-18T12:11:53.154Z,90.64
2017-11-18T12:14:20.700Z,91.44
2017-11-18T12:16:48.313Z,91.68
2017-11-18T12:19:15.875Z,91.81
2017-11-18T12:21:43.431Z,91.96
2017-11-18T12:24:11.014Z,92.07
2017-11-18T12:26:38.610Z,92.06
2017-11-18T12:29:06.302Z,92.02
2017-11-18T12:31:33.912Z,91.97
2017-11-18T12:34:01.509Z,92.06
2017-11-18T12:36:29.100Z,92.10
2017-11-18T12:38:56.681Z,92.29
2017-11-18T12:41:24.308Z,91.99
2017-11-18T12:43:51.889Z,92.20
2017-11-18T12:46:19.450Z,91.85
2017-11-18T12:48:47.054Z,91.56
2017-11-18T12:51:14.621Z,91.39
2017-11-18T12:53:42.380Z,91.48
2017-11-18T12:56:09.985Z,91.23
2017-11-18T12:58:37.628Z,90.47
2017-11-18T13:01:05.227Z,90.73
2017-11-18T13:03:33.059Z,90.59
2017-11-18T13:06:00.670Z,90.61
2017-11-18T13:08:28.285Z,90.72
2017-11-18T13:10:56.077Z,89.62
2017-11-18T13:13:23.662Z,89.51
2017-11-18T13:15:51.222Z,89.65
2017-11-18T13:18:18.766Z,89.13
2017-11-18T13:20:46.351Z,88.87
2017-11-18T13:23:13.921Z,87.67
2017-11-18T13:25:42.485Z,87.41
2017-11-18T13:28:10.110Z,87.66
2017-11-18T13:30:37.695Z,87.08
2017-11-18T13:33:05.304Z,86.27
2017-11-18T13:35:32.902Z,85.94
2017-11-18T13:38:00.493Z,85.51
2017-11-18T13:40:28.055Z,85.27
2017-11-18T13:42:55.672Z,84.04
2017-11-18T13:45:23.490Z,84.34
2017-11-18T13:47:51.068Z,84.11
2017-11-18T13:50:18.699Z,83.84
2017-11-18T13:53:09.135Z,83.91
2017-11-18T13:55:36.731Z,83.96
2017-11-18T13:58:04.319Z,84.13
2017-11-18T14:00:33.772Z,83.75
2017-11-18T14:03:01.334Z,83.16
2017-11-18T14:05:28.983Z,83.01
2017-11-18T14:07:56.546Z,82.72
2017-11-18T14:10:24.122Z,82.51
2017-11-18T14:12:51.755Z,82.05
2017-11-18T14:15:19.434Z,82.62
2017-11-18T14:17:47.070Z,82.33
2017-11-18T14:20:14.695Z,83.21
2017-11-18T14:22:42.289Z,82.91
2017-11-18T14:25:10.309Z,82.60
2017-11-18T14:27:37.953Z,82.31
2017-11-18T14:30:05.519Z,82.25
2017-11-18T14:32:33.127Z,82.58
2017-11-18T14:35:00.713Z,82.61
2017-11-18T14:37:28.297Z,82.88
2017-11-18T14:39:55.888Z,83.93
2017-11-18T14:42:23.503Z,84.30
2017-11-18T14:44:51.117Z,84.76
2017-11-18T14:47:18.847Z,84.99
2017-11-18T14:49:46.790Z,85.19
2017-11-18T14:52:14.405Z,84.93
2017-11-18T14:54:42.052Z,84.84
2017-11-18T14:57:09.872Z,84.76
2017-11-18T14:59:37.498Z,84.47
2017-11-18T15:02:08.176Z,84.70
2017-11-18T15:04:37.430Z,84.67
2017-11-18T15:07:05.317Z,84.11
2017-11-18T15:09:33.090Z,83.86
2017-11-18T15:12:00.714Z,83.73
2017-11-18T15:17:38.824Z,84.70
2017-11-18T15:20:11.775Z,84.94
2017-11-18T15:25:52.320Z,85.66
2017-11-18T15:37:23.398Z,84.82
2017-11-18T15:39:51.078Z,84.74
2017-11-18T15:42:18.913Z,85.25
2017-11-18T15:44:50.096Z,84.91
2017-11-18T15:50:26.233Z,84.74
2017-11-18T15:53:03.188Z,84.71
2017-11-18T15:58:49.084Z,85.35
2017-11-18T16:01:22.436Z,85.07
2017-11-18T16:03:51.862Z,83.78
2017-11-18T16:06:21.104Z,83.92
2017-11-18T16:08:48.715Z,84.11
2017-11-18T16:11:16.340Z,82.83
2017-11-18T16:13:43.925Z,82.78
2017-11-18T16:16:11.655Z,82.92
2017-11-18T16:18:39.259Z,82.65
2017-11-18T16:21:06.845Z,82.58
2017-11-18T16:23:34.627Z,82.76
2017-11-18T16:26:02.260Z,82.67
2017-11-18T16:28:29.880Z,82.58
2017-11-18T16:30:57.492Z,83.09
2017-11-18T16:33:25.870Z,82.86
2017-11-18T16:35:53.468Z,83.08
2017-11-18T16:38:22.146Z,82.82
2017-11-18T16:40:49.964Z,82.93
2017-11-18T16:43:17.587Z,83.22
2017-11-18T16:45:45.197Z,84.00
2017-11-18T16:48:12.806Z,82.87
2017-11-18T16:50:40.414Z,82.88
2017-11-18T16:53:08.039Z,82.33
2017-11-18T16:55:35.621Z,82.31
2017-11-18T16:58:03.224Z,82.13
2017-11-18T17:00:30.822Z,82.17
2017-11-18T17:02:58.431Z,81.66
2017-11-18T17:05:26.244Z,81.89
2017-11-18T17:07:53.855Z,81.97
2017-11-18T17:10:21.428Z,81.57
2017-11-18T17:12:49.028Z,80.84
2017-11-18T17:15:16.647Z,80.91
2017-11-18T17:17:44.283Z,81.22
2017-11-18T17:20:11.897Z,81.11
2017-11-18T17:22:39.755Z,81.23
2017-11-18T17:25:07.344Z,80.98
2017-11-18T17:27:34.972Z,80.59
2017-11-18T17:30:02.553Z,80.74
2017-11-18T17:32:30.240Z,80.20
2017-11-18T17:34:57.905Z,79.84
2017-11-18T17:37:25.618Z,79.57
2017-11-18T17:39:53.200Z,79.27
2017-11-18T17:42:21.534Z,79.59
2017-11-18T17:44:49.137Z,79.70
2017-11-18T17:47:16.699Z,80.18
2017-11-18T17:49:44.318Z,79.90
2017-11-18T17:52:11.875Z,79.84
2017-11-18T17:54:39.429Z,79.68
2017-11-18T17:57:07.101Z,79.37
2017-11-18T17:59:34.673Z,78.85
2017-11-18T18:02:02.341Z,79.08
2017-11-18T18:04:29.983Z,79.74
2017-11-18T18:06:57.800Z,79.08
2017-11-18T18:09:25.423Z,79.14
2017-11-18T18:11:53.037Z,78.82
2017-11-18T18:14:20.717Z,77.48
2017-11-18T18:16:48.299Z,77.43
2017-11-18T18:19:15.884Z,77.33
2017-11-18T18:21:43.501Z,77.88
2017-11-18T18:24:11.089Z,77.85
2017-11-18T18:26:38.694Z,77.12
2017-11-18T18:29:06.514Z,77.07
2017-11-18T18:31:34.093Z,76.76
2017-11-18T18:34:01.698Z,75.75
2017-11-18T18:36:29.317Z,75.82
2017-11-18T18:38:56.926Z,74.94
2017-11-18T18:41:24.488Z,75.48
2017-11-18T18:43:52.126Z,75.66
2017-11-18T18:46:19.710Z,74.71
2017-11-18T18:48:47.274Z,75.42
2017-11-18T18:51:14.893Z,74.96
2017-11-18T18:53:42.474Z,75.65
2017-11-18T18:56:10.051Z,75.52
2017-11-18T18:58:37.651Z,76.20
2017-11-18T19:01:05.215Z,76.03
2017-11-18T19:03:45.303Z,76.32
2017-11-18T19:06:12.865Z,76.09
2017-11-18T19:08:40.434Z,76.09
2017-11-18T19:11:08.080Z,76.48
2017-11-18T19:13:35.647Z,76.65
2017-11-18T19:16:03.240Z,77.16
2017-11-18T19:18:30.861Z,76.19
2017-11-18T19:20:58.433Z,76.89
2017-11-18T19:23:26.020Z,77.21
2017-11-18T19:25:53.608Z,77.56
2017-11-18T19:28:21.169Z,78.04
2017-11-18T19:30:48.777Z,77.99
2017-11-18T19:33:16.381Z,77.80
2017-11-18T19:35:43.958Z,77.74
2017-11-18T19:38:11.645Z,77.53
2017-11-18T19:40:39.213Z,77.21
2017-11-18T19:43:07.255Z,77.47
2017-11-18T19:45:34.932Z,77.64
2017-11-18T19:48:02.518Z,77.30
2017-11-18T19:50:30.121Z,76.96
2017-11-18T19:52:57.708Z,76.92
2017-11-18T19:55:25.277Z,77.02
2017-11-18T19:57:53.736Z,77.23
2017-11-18T20:00:21.416Z,77.53
2017-11-18T20:05:39.416Z,77.63
2017-11-18T20:08:06.976Z,77.89
2017-11-18T20:10:34.558Z,77.56
2017-11-18T20:13:02.126Z,77.43
2017-11-18T20:15:29.874Z,76.93
2017-11-18T20:17:57.466Z,76.32
2017-11-18T20:20:25.051Z,76.47
2017-11-18T20:22:52.622Z,75.96
2017-11-18T20:25:20.225Z,76.16
2017-11-18T20:27:47.818Z,76.15
2017-11-18T20:30:15.393Z,75.05
2017-11-18T20:32:43.010Z,75.57
2017-11-18T20:35:10.721Z,76.15
2017-11-18T20:37:38.313Z,75.70
2017-11-18T20:40:05.904Z,75.86
2017-11-18T20:42:33.524Z,75.35
2017-11-18T20:45:01.081Z,74.51
2017-11-18T20:47:29.461Z,72.99
2017-11-18T20:49:57.033Z,73.54
2017-11-18T20:52:24.597Z,73.41
2017-11-18T20:54:52.253Z,73.77
2017-11-18T20:57:19.894Z,73.74
2017-11-18T20:59:47.445Z,74.54
2017-11-18T21:02:15.127Z,75.17
2017-11-18T21:04:42.785Z,74.95
2017-11-18T21:07:11.016Z,75.73
2017-11-18T21:09:38.619Z,74.91
2017-11-18T21:12:06.239Z,74.75
2017-11-18T21:14:33.850Z,74.35
2017-11-18T21:17:01.525Z,73.94
2017-11-18T21:19:29.278Z,73.82
2017-11-18T21:21:56.881Z,73.94
2017-11-18T21:24:24.805Z,74.13
2017-11-18T21:26:52.397Z,73.44
2017-11-18T21:29:19.979Z,73.67
2017-11-18T21:31:47.594Z,73.27
2017-11-18T21:34:15.162Z,73.31
2017-11-18T21:36:42.726Z,71.67
2017-11-18T21:39:10.828Z,72.32
2017-11-18T21:41:38.429Z,72.35
2017-11-18T21:44:06.050Z,72.51
2017-11-18T21:46:33.659Z,72.38
2017-11-18T21:49:01.259Z,72.64
2017-11-18T21:51:29.762Z,72.71
2017-11-18T21:53:57.520Z,72.96
2017-11-18T21:56:25.139Z,72.88
2017-11-18T21:58:52.735Z,73.78
2017-11-18T22:01:20.344Z,73.55
2017-11-18T22:03:47.939Z,73.00
2017-11-18T22:06:15.534Z,73.26
2017-11-18T22:08:43.110Z,73.54
2017-11-18T22:11:11.391Z,73.45
2017-11-18T22:13:38.970Z,73.33
2017-11-18T22:16:06.601Z,73.71
2017-11-18T22:18:34.192Z,74.07
2017-11-18T22:21:01.773Z,74.80
2017-11-18T22:23:29.335Z,74.58
2017-11-18T22:25:56.926Z,74.89
2017-11-18T22:28:24.518Z,75.36
2017-11-18T22:30:52.099Z,74.92
2017-11-18T22:33:19.781Z,74.55
2017-11-18T22:35:47.353Z,75.57
2017-11-18T22:38:14.980Z,75.03
2017-11-18T22:40:42.635Z,75.21
2017-11-18T22:43:10.360Z,74.56
2017-11-18T22:45:37.968Z,74.33
2017-11-18T22:48:05.676Z,74.29
2017-11-18T22:50:33.360Z,74.23
2017-11-18T22:53:00.930Z,74.04
2017-11-18T22:55:28.493Z,73.41
2017-11-18T22:57:56.071Z,74.03
2017-11-18T23:00:41.465Z,73.91
2017-11-18T23:03:09.552Z,73.32
2017-11-18T23:05:37.168Z,73.07
2017-11-18T23:08:04.775Z,72.90
2017-11-18T23:10:32.344Z,72.87
2017-11-18T23:13:02.867Z,73.49
2017-11-18T23:15:30.603Z,72.28
2017-11-18T23:17:58.156Z,72.61
2017-11-18T23:20:25.757Z,72.91
2017-11-18T23:22:53.388Z,72.99
2017-11-18T23:25:21.037Z,72.14
2017-11-18T23:27:48.585Z,71.82
2017-11-18T23:30:16.194Z,72.03
2017-11-18T23:32:43.776Z,72.09
2017-11-18T23:35:12.715Z,71.91
2017-11-18T23:37:40.323Z,71.63
2017-11-18T23:40:07.946Z,72.44
2017-11-18T23:42:35.498Z,71.82
2017-11-18T23:45:03.153Z,71.41
2017-11-18T23:47:30.728Z,71.39
2017-11-18T23:49:58.317Z,70.84
2017-11-18T23:52:25.851Z,71.17
2017-11-18T23:54:55.577Z,71.23
2017-11-18T23:57:23.217Z,71.50
2017-11-18T23:59:50.787Z,71.93
